West Mystic, Connecticut
Current Conditions -  °F | °C
As of 6:56 PM on Friday 31 Oct 2014 (Local Time) from KGON Reporting Station
Overcast Overcast  
Wind Chill: 44°   Ceiling: 3900
Heat Index: 49°   Visibility: 10mi
Dew Point: 44°   Wind: 14mph
Humidity: 83%   Direction: 50°NE
Pressure: 29.93"   Gusts: NA
Location:  41.35°N, 71.98°W
Report Text: KGON 312256Z 05012KT 10SM BKN039 OVC047 09/07 A2993 RMK AO2 RAB00E49 SLP135 P0000 T00940067
Loading
Personal Weather Stations






























Interactive Weather Map
Tropical Storm Tracking
New forecast layout! Learn more

10-Day Weather Forecast

Advertisements
Track Severe Weather on mobile